createdAt,value
2019-01-21T00:00:22.050Z,41.40
2019-01-21T00:02:50.465Z,45.97
2019-01-21T00:05:18.773Z,40.50
2019-01-21T00:07:47.243Z,34.17
2019-01-21T00:10:15.566Z,38.53
2019-01-21T00:12:43.858Z,41.20
2019-01-21T00:15:12.464Z,41.47
2019-01-21T00:17:40.937Z,36.70
2019-01-21T00:20:09.299Z,43.23
2019-01-21T00:22:37.643Z,39.67
2019-01-21T00:25:06.912Z,41.47
2019-01-21T00:27:35.244Z,43.20
2019-01-21T00:30:04.279Z,37.17
2019-01-21T00:32:32.732Z,36.27
2019-01-21T00:35:01.122Z,39.60
2019-01-21T00:37:29.391Z,38.47
2019-01-21T00:39:57.705Z,44.77
2019-01-21T00:42:26.200Z,44.87
2019-01-21T00:44:54.474Z,46.70
2019-01-21T00:47:29.588Z,49.77
2019-01-21T00:49:52.904Z,38.93
2019-01-21T00:52:21.190Z,51.97
2019-01-21T00:54:51.007Z,40.93
2019-01-21T00:57:19.604Z,45.40
2019-01-21T00:59:47.947Z,40.73
2019-01-21T01:02:16.257Z,32.73
2019-01-21T01:04:44.672Z,41.23
2019-01-21T01:07:12.945Z,44.00
2019-01-21T01:09:41.223Z,41.17
2019-01-21T01:12:09.523Z,41.10
2019-01-21T01:14:37.872Z,37.93
2019-01-21T01:17:06.180Z,45.47
2019-01-21T01:19:34.568Z,42.80
2019-01-21T01:22:02.874Z,74.03
2019-01-21T01:24:31.211Z,47.07
2019-01-21T01:26:59.587Z,47.13
2019-01-21T01:29:27.865Z,50.23
2019-01-21T01:31:56.184Z,33.63
2019-01-21T01:34:24.454Z,45.93
2019-01-21T01:36:52.837Z,39.63
2019-01-21T01:39:21.179Z,38.77
2019-01-21T01:41:49.490Z,37.60
2019-01-21T01:44:17.791Z,43.47
2019-01-21T01:46:46.404Z,40.80
2019-01-21T01:49:14.731Z,37.10
2019-01-21T01:51:45.351Z,38.73
2019-01-21T01:54:15.353Z,38.40
2019-01-21T01:56:43.629Z,56.57
2019-01-21T01:59:12.185Z,43.30
2019-01-21T02:01:40.556Z,39.03
2019-01-21T02:04:08.981Z,37.73
2019-01-21T02:06:37.382Z,37.03
2019-01-21T02:09:07.188Z,30.83
2019-01-21T02:11:35.914Z,35.83
2019-01-21T02:14:04.183Z,40.60
2019-01-21T02:16:32.490Z,34.73
2019-01-21T02:19:00.836Z,36.67
2019-01-21T02:21:29.262Z,41.40
2019-01-21T02:24:00.629Z,38.40
2019-01-21T02:26:29.070Z,43.60
2019-01-21T02:29:06.306Z,37.27
2019-01-21T02:31:52.591Z,34.33
2019-01-21T02:34:30.091Z,34.17
2019-01-21T02:37:23.685Z,35.83
2019-01-21T02:39:58.172Z,32.27
2019-01-21T02:42:32.618Z,39.03
2019-01-21T02:45:07.094Z,44.47
2019-01-21T02:47:41.402Z,44.90
2019-01-21T02:50:28.230Z,54.40
2019-01-21T02:53:02.467Z,53.93
2019-01-21T02:55:53.384Z,40.27
2019-01-21T02:58:41.233Z,37.80
2019-01-21T03:01:27.712Z,38.67
2019-01-21T03:04:33.701Z,37.97
2019-01-21T03:07:05.323Z,43.90
2019-01-21T03:09:45.715Z,32.97
2019-01-21T03:12:46.532Z,37.60
2019-01-21T03:15:40.525Z,30.97
2019-01-21T03:18:43.678Z,42.50
2019-01-21T03:21:32.745Z,39.53
2019-01-21T03:24:25.226Z,39.33
2019-01-21T03:27:05.666Z,45.40
2019-01-21T03:29:49.298Z,45.53
2019-01-21T03:32:42.037Z,44.87
2019-01-21T03:35:46.713Z,55.17
2019-01-21T03:38:37.548Z,33.50
2019-01-21T03:41:13.556Z,44.80
2019-01-21T03:44:04.285Z,37.67
2019-01-21T03:46:41.802Z,41.67
2019-01-21T03:49:16.577Z,44.53
2019-01-21T03:52:05.947Z,39.57
2019-01-21T03:54:34.455Z,43.60
2019-01-21T03:57:06.126Z,39.43
2019-01-21T04:00:01.516Z,41.30
2019-01-21T04:03:01.490Z,32.43
2019-01-21T04:05:35.710Z,41.47
2019-01-21T04:08:12.826Z,39.37
2019-01-21T04:10:50.126Z,36.40
2019-01-21T04:13:33.714Z,40.47
2019-01-21T04:16:05.255Z,34.67
2019-01-21T04:18:46.012Z,42.83
2019-01-21T04:21:54.855Z,45.27
2019-01-21T04:24:38.530Z,41.23
2019-01-21T04:27:26.158Z,42.53
2019-01-21T04:30:19.113Z,38.03
2019-01-21T04:33:19.412Z,40.87
2019-01-21T04:36:05.603Z,40.73
2019-01-21T04:38:42.988Z,53.73
2019-01-21T04:41:18.651Z,43.73
2019-01-21T04:43:50.312Z,46.33
2019-01-21T04:46:21.842Z,35.93
2019-01-21T04:49:04.787Z,39.70
2019-01-21T04:51:48.024Z,50.80
2019-01-21T04:54:25.553Z,43.40
2019-01-21T04:57:18.048Z,49.53
2019-01-21T05:00:04.499Z,40.93
2019-01-21T05:03:10.296Z,35.83
2019-01-21T05:05:42.030Z,37.20
2019-01-21T05:08:29.989Z,39.50
2019-01-21T05:11:13.338Z,45.17
2019-01-21T05:13:44.969Z,40.63
2019-01-21T05:16:28.341Z,40.10
2019-01-21T05:19:08.672Z,35.27
2019-01-21T05:21:55.080Z,42.00
2019-01-21T05:24:44.703Z,46.40
2019-01-21T05:27:19.237Z,48.47
2019-01-21T05:29:59.829Z,40.07
2019-01-21T05:32:37.064Z,42.03
2019-01-21T05:35:29.763Z,48.83
2019-01-21T05:38:13.390Z,44.10
2019-01-21T05:40:48.421Z,42.73
2019-01-21T05:43:36.296Z,45.90
2019-01-21T05:46:30.443Z,43.73
2019-01-21T05:49:28.403Z,44.23
2019-01-21T05:52:15.330Z,42.63
2019-01-21T05:55:04.652Z,38.97
2019-01-21T05:57:57.085Z,38.30
2019-01-21T06:00:28.692Z,42.80
2019-01-21T06:03:08.936Z,41.23
2019-01-21T06:05:52.475Z,43.53
2019-01-21T06:08:58.344Z,46.80
2019-01-21T06:11:46.395Z,54.00
2019-01-21T06:14:38.778Z,46.73
2019-01-21T06:17:47.640Z,43.13
2019-01-21T06:20:28.049Z,44.73
2019-01-21T06:23:11.633Z,40.80
2019-01-21T06:25:49.175Z,43.77
2019-01-21T06:28:35.635Z,45.97
2019-01-21T06:31:32.016Z,45.20
2019-01-21T06:34:33.693Z,36.73
2019-01-21T06:37:13.845Z,48.13
2019-01-21T06:40:34.683Z,43.73
2019-01-21T06:43:06.214Z,41.07
2019-01-21T06:45:52.912Z,41.20
2019-01-21T06:48:36.227Z,42.33
2019-01-21T06:51:26.054Z,48.60
2019-01-21T06:54:06.325Z,37.53
2019-01-21T06:56:57.242Z,46.77
2019-01-21T07:00:05.935Z,41.70
2019-01-21T07:02:55.228Z,45.27
2019-01-21T07:05:39.109Z,46.30
2019-01-21T07:08:43.680Z,38.80
2019-01-21T07:11:49.422Z,44.57
2019-01-21T07:14:32.989Z,53.20
2019-01-21T07:17:10.814Z,48.50
2019-01-21T07:19:46.313Z,52.17
2019-01-21T07:22:51.635Z,45.13
2019-01-21T07:26:00.261Z,42.27
2019-01-21T07:28:43.862Z,45.53
2019-01-21T07:31:30.155Z,42.40
2019-01-21T07:34:06.897Z,49.10
2019-01-21T07:36:55.031Z,38.50
2019-01-21T07:39:42.907Z,53.40
2019-01-21T07:42:23.189Z,36.47
2019-01-21T07:44:57.725Z,33.87
2019-01-21T07:47:45.637Z,39.83
2019-01-21T07:50:35.355Z,38.90
2019-01-21T07:53:12.637Z,44.90
2019-01-21T07:56:02.094Z,46.60
2019-01-21T07:58:36.448Z,37.30
2019-01-21T08:01:28.982Z,34.50
2019-01-21T08:04:33.413Z,62.23
2019-01-21T08:07:20.080Z,44.93
2019-01-21T08:10:00.240Z,46.47
2019-01-21T08:12:52.806Z,43.90
2019-01-21T08:15:27.310Z,44.70
2019-01-21T08:18:15.546Z,41.70
2019-01-21T08:20:56.158Z,50.27
2019-01-21T08:23:51.442Z,44.67
2019-01-21T08:26:25.754Z,42.20
2019-01-21T08:29:03.414Z,44.67
2019-01-21T08:31:35.058Z,41.57
2019-01-21T08:34:12.159Z,49.63
2019-01-21T08:36:46.244Z,42.30
2019-01-21T08:39:32.641Z,45.47
2019-01-21T08:42:26.087Z,47.47
2019-01-21T08:45:15.684Z,40.13
2019-01-21T08:47:56.095Z,47.10
2019-01-21T08:50:51.592Z,41.73
2019-01-21T08:53:23.128Z,44.57
2019-01-21T08:55:54.718Z,43.03
2019-01-21T08:59:03.198Z,44.77
2019-01-21T09:01:57.277Z,43.30
2019-01-21T09:05:03.407Z,55.67
2019-01-21T09:07:51.526Z,42.10
2019-01-21T09:10:39.771Z,37.03
2019-01-21T09:13:19.984Z,57.50
2019-01-21T09:16:02.908Z,46.20
2019-01-21T09:18:34.462Z,45.73
2019-01-21T09:21:24.204Z,51.30
2019-01-21T09:23:58.503Z,40.93
2019-01-21T09:26:56.276Z,43.97
2019-01-21T09:29:27.854Z,44.87
2019-01-21T09:32:15.776Z,48.40
2019-01-21T09:35:08.061Z,45.17
2019-01-21T09:37:48.102Z,44.93
2019-01-21T09:40:22.383Z,43.57
2019-01-21T09:43:10.319Z,44.90
2019-01-21T09:46:05.744Z,67.50
2019-01-21T09:48:33.111Z,51.30
2019-01-21T09:51:04.695Z,44.97
2019-01-21T09:53:33.182Z,48.83
2019-01-21T09:56:01.536Z,47.10
2019-01-21T09:58:29.879Z,53.70
2019-01-21T10:00:58.180Z,42.93
2019-01-21T10:03:26.461Z,44.53
2019-01-21T10:05:58.064Z,44.17
2019-01-21T10:08:29.649Z,45.57
2019-01-21T10:11:04.519Z,44.70
2019-01-21T10:13:38.733Z,44.60
2019-01-21T10:16:28.378Z,49.60
2019-01-21T10:19:15.942Z,48.43
2019-01-21T10:21:56.275Z,44.70
2019-01-21T10:24:45.651Z,46.70
2019-01-21T10:27:17.232Z,47.47
2019-01-21T10:30:14.271Z,50.97
2019-01-21T10:33:02.483Z,41.77
2019-01-21T10:35:50.525Z,39.70
2019-01-21T10:38:37.869Z,37.67
2019-01-21T10:41:12.057Z,47.67
2019-01-21T10:43:52.181Z,44.30
2019-01-21T10:46:57.069Z,47.27
2019-01-21T10:49:59.222Z,46.90
2019-01-21T10:53:02.139Z,52.10
2019-01-21T10:55:49.821Z,54.37
2019-01-21T10:58:30.236Z,71.20
2019-01-21T11:01:27.252Z,40.30
2019-01-21T11:04:13.543Z,54.03
2019-01-21T11:06:50.967Z,52.80
2019-01-21T11:09:28.317Z,59.53
2019-01-21T11:12:11.228Z,56.13
2019-01-21T11:14:42.806Z,50.67
2019-01-21T11:17:26.089Z,48.60
2019-01-21T11:20:16.808Z,50.60
2019-01-21T11:22:57.376Z,50.03
2019-01-21T11:25:48.208Z,48.50
2019-01-21T11:28:31.747Z,48.90
2019-01-21T11:31:15.128Z,51.77
2019-01-21T11:34:04.694Z,46.40
2019-01-21T11:36:39.058Z,48.10
2019-01-21T11:39:33.151Z,52.30
2019-01-21T11:42:25.634Z,46.73
2019-01-21T11:45:21.184Z,51.17
2019-01-21T11:48:04.886Z,49.07
2019-01-21T11:50:48.186Z,43.67
2019-01-21T11:53:19.830Z,42.70
2019-01-21T11:55:51.464Z,43.33
2019-01-21T11:58:51.602Z,48.70
2019-01-21T12:01:34.942Z,41.90
2019-01-21T12:04:30.402Z,39.40
2019-01-21T12:07:13.622Z,28.57
2019-01-21T12:10:01.591Z,36.47
2019-01-21T12:12:36.111Z,26.53
2019-01-21T12:15:19.518Z,26.07
2019-01-21T12:18:09.070Z,40.00
2019-01-21T12:20:49.365Z,26.90
2019-01-21T12:23:36.051Z,32.40
2019-01-21T12:26:22.387Z,36.33
2019-01-21T12:29:08.679Z,29.10
2019-01-21T12:31:49.227Z,30.03
2019-01-21T12:34:41.820Z,32.37
2019-01-21T12:37:21.991Z,23.97
2019-01-21T12:39:53.535Z,28.97
2019-01-21T12:42:25.199Z,32.70
2019-01-21T12:45:29.718Z,34.63
2019-01-21T12:48:10.033Z,26.20
2019-01-21T12:51:09.902Z,25.13
2019-01-21T12:53:50.322Z,27.83
2019-01-21T12:56:42.921Z,22.17
2019-01-21T12:59:17.463Z,30.30
2019-01-21T13:01:55.006Z,28.23
2019-01-21T13:04:29.495Z,24.20
2019-01-21T13:07:06.846Z,26.50
2019-01-21T13:09:41.002Z,21.87
2019-01-21T13:12:28.977Z,26.90
2019-01-21T13:15:29.012Z,27.37
2019-01-21T13:18:00.708Z,10.00
2019-01-21T13:20:50.278Z,25.27
2019-01-21T13:23:21.936Z,21.50
2019-01-21T13:26:02.172Z,23.73
2019-01-21T13:28:48.724Z,25.80
2019-01-21T13:31:38.074Z,25.37
2019-01-21T13:34:44.270Z,26.63
2019-01-21T13:37:44.103Z,27.73
2019-01-21T13:40:39.189Z,34.23
2019-01-21T13:43:39.173Z,23.10
2019-01-21T13:46:19.832Z,28.50
2019-01-21T13:48:51.440Z,21.80
2019-01-21T13:51:35.075Z,32.60
2019-01-21T13:54:06.733Z,24.57
2019-01-21T13:57:00.847Z,26.97
2019-01-21T13:59:41.559Z,24.53
2019-01-21T14:02:15.949Z,27.00
2019-01-21T14:05:02.775Z,33.70
2019-01-21T14:07:37.139Z,29.53
2019-01-21T14:10:14.575Z,29.30
2019-01-21T14:12:54.736Z,29.10
2019-01-21T14:15:31.991Z,27.53
2019-01-21T14:18:18.425Z,22.63
2019-01-21T14:20:50.030Z,22.53
2019-01-21T14:23:33.711Z,26.73
2019-01-21T14:26:16.959Z,20.73
2019-01-21T14:28:54.222Z,33.93
2019-01-21T14:31:31.613Z,24.03
2019-01-21T14:34:24.327Z,26.17
2019-01-21T14:37:05.043Z,27.70
2019-01-21T14:39:42.292Z,26.57
2019-01-21T14:42:13.951Z,30.33
2019-01-21T14:44:51.221Z,25.90
2019-01-21T14:47:32.397Z,36.07
2019-01-21T14:50:12.654Z,33.33
2019-01-21T14:53:03.596Z,27.00
2019-01-21T14:55:52.177Z,33.20
2019-01-21T14:58:26.887Z,34.00
2019-01-21T15:01:16.087Z,35.83
2019-01-21T15:04:04.259Z,30.20
2019-01-21T15:06:53.608Z,38.17
2019-01-21T15:09:40.070Z,33.60
2019-01-21T15:12:20.664Z,34.00
2019-01-21T15:15:16.634Z,35.17
2019-01-21T15:18:00.053Z,37.13
2019-01-21T15:20:31.677Z,35.73
2019-01-21T15:23:21.269Z,32.83
2019-01-21T15:25:53.405Z,33.53
2019-01-21T15:28:43.854Z,30.90
2019-01-21T15:31:15.515Z,33.27
2019-01-21T15:33:56.583Z,30.87
2019-01-21T15:36:47.321Z,33.50
2019-01-21T15:39:31.890Z,32.20
2019-01-21T15:42:27.859Z,32.40
2019-01-21T15:45:28.060Z,33.23
2019-01-21T15:48:16.245Z,31.67
2019-01-21T15:50:53.529Z,26.03
2019-01-21T15:53:25.238Z,28.80
2019-01-21T15:56:10.834Z,36.27
2019-01-21T15:58:53.071Z,36.77
2019-01-21T16:01:33.501Z,38.93
2019-01-21T16:04:05.017Z,32.97
2019-01-21T16:06:52.654Z,39.23
2019-01-21T16:09:30.564Z,34.57
2019-01-21T16:12:14.078Z,35.47
2019-01-21T16:14:45.919Z,34.60
2019-01-21T16:17:17.661Z,36.07
2019-01-21T16:19:46.019Z,31.33
2019-01-21T16:22:20.445Z,37.27
2019-01-21T16:25:01.375Z,32.23
2019-01-21T16:28:04.751Z,36.77
2019-01-21T16:30:37.958Z,42.00
2019-01-21T16:33:43.820Z,39.60
2019-01-21T16:36:30.870Z,36.20
2019-01-21T16:39:04.656Z,33.63
2019-01-21T16:41:39.213Z,35.87
2019-01-21T16:44:07.696Z,38.63
2019-01-21T16:46:36.881Z,37.10
2019-01-21T16:49:05.350Z,41.17
2019-01-21T16:51:33.618Z,36.90
2019-01-21T16:54:01.934Z,32.63
2019-01-21T16:56:30.374Z,30.83
2019-01-21T16:59:04.354Z,32.63
2019-01-21T17:01:33.354Z,38.87
2019-01-21T17:04:08.311Z,39.97
2019-01-21T17:06:39.608Z,39.90
2019-01-21T17:09:10.159Z,31.73
2019-01-21T17:11:38.578Z,39.73
2019-01-21T17:14:08.573Z,33.93
2019-01-21T17:16:36.858Z,41.87
2019-01-21T17:19:05.429Z,44.17
2019-01-21T17:24:04.200Z,38.10
2019-01-21T17:26:32.654Z,42.77
2019-01-21T17:29:02.331Z,37.80
2019-01-21T17:31:31.017Z,53.00
2019-01-21T17:33:59.696Z,36.20
2019-01-21T17:36:28.877Z,44.43
2019-01-21T17:38:57.331Z,39.97
2019-01-21T17:41:26.681Z,41.30
2019-01-21T17:43:55.035Z,42.10
2019-01-21T17:46:25.109Z,38.60
2019-01-21T17:48:53.527Z,44.10
2019-01-21T17:51:21.877Z,34.83
2019-01-21T17:53:51.443Z,40.07
2019-01-21T17:56:20.096Z,31.10
2019-01-21T17:58:49.225Z,38.10
2019-01-21T18:01:19.392Z,32.53
2019-01-21T18:03:49.842Z,24.10
2019-01-21T18:06:19.815Z,32.47
2019-01-21T18:08:47.918Z,36.23
2019-01-21T18:11:16.389Z,32.60
2019-01-21T18:13:44.825Z,15.80
2019-01-21T18:16:14.925Z,24.37
2019-01-21T18:18:43.686Z,37.50
2019-01-21T18:21:12.175Z,25.33
2019-01-21T18:23:41.068Z,18.27
2019-01-21T18:26:09.557Z,31.80
2019-01-21T18:28:38.198Z,18.57
2019-01-21T18:31:09.827Z,34.90
2019-01-21T18:33:38.845Z,29.53
2019-01-21T18:36:08.067Z,32.40
2019-01-21T18:38:39.542Z,30.87
2019-01-21T18:41:07.992Z,29.33
2019-01-21T18:43:36.336Z,31.97
2019-01-21T18:46:06.048Z,32.93
2019-01-21T18:48:34.313Z,31.03
2019-01-21T18:51:02.749Z,26.87
2019-01-21T18:53:35.245Z,32.13
2019-01-21T18:56:06.058Z,36.03
2019-01-21T18:58:34.368Z,38.27
2019-01-21T19:01:03.345Z,34.03
2019-01-21T19:03:37.079Z,27.07
2019-01-21T19:06:06.988Z,23.07
2019-01-21T19:08:35.699Z,23.00
2019-01-21T19:11:04.442Z,28.83
2019-01-21T19:13:32.892Z,23.87
2019-01-21T19:16:01.244Z,26.83
2019-01-21T19:18:29.660Z,35.67
2019-01-21T19:20:58.035Z,8.77
2019-01-21T19:23:29.402Z,21.50
2019-01-21T19:25:59.712Z,26.00
2019-01-21T19:28:28.093Z,26.27
2019-01-21T19:30:56.730Z,16.07
2019-01-21T19:33:25.060Z,28.57
2019-01-21T19:35:53.409Z,21.83
2019-01-21T19:38:22.642Z,33.17
2019-01-21T19:40:51.074Z,25.10
2019-01-21T19:43:19.466Z,24.27
2019-01-21T19:45:47.757Z,24.77
2019-01-21T19:48:16.034Z,22.83
2019-01-21T19:50:44.339Z,22.40
2019-01-21T19:53:13.042Z,19.97
2019-01-21T19:56:02.319Z,25.67
2019-01-21T19:58:31.145Z,22.23
2019-01-21T20:00:59.549Z,21.73
2019-01-21T20:03:28.234Z,21.63
2019-01-21T20:05:56.502Z,32.47
2019-01-21T20:08:26.379Z,30.70
2019-01-21T20:10:55.017Z,39.77
2019-01-21T20:13:25.656Z,30.50
2019-01-21T20:15:59.405Z,37.37
2019-01-21T20:18:29.928Z,22.03
2019-01-21T20:20:58.314Z,32.23
2019-01-21T20:23:26.853Z,28.93
2019-01-21T20:25:55.228Z,35.23
2019-01-21T20:28:23.749Z,31.10
2019-01-21T20:30:52.119Z,23.30
2019-01-21T20:33:20.389Z,23.80
2019-01-21T20:35:48.684Z,21.20
2019-01-21T20:38:17.039Z,23.43
2019-01-21T20:40:45.456Z,27.43
2019-01-21T20:43:13.719Z,17.90
2019-01-21T20:45:42.059Z,23.07
2019-01-21T20:48:10.408Z,23.63
2019-01-21T20:50:38.776Z,19.50
2019-01-21T20:53:08.198Z,21.33
2019-01-21T20:55:36.599Z,28.67
2019-01-21T20:58:05.108Z,25.33
2019-01-21T21:00:33.567Z,27.77
2019-01-21T21:03:01.971Z,30.47
2019-01-21T21:05:30.494Z,26.30
2019-01-21T21:08:00.571Z,34.60
2019-01-21T21:10:29.142Z,28.33
2019-01-21T21:13:01.699Z,29.00
2019-01-21T21:15:33.065Z,28.93
2019-01-21T21:18:01.678Z,28.17
2019-01-21T21:20:32.413Z,30.30
2019-01-21T21:23:03.611Z,30.27
2019-01-21T21:25:31.973Z,32.10
2019-01-21T21:28:00.944Z,24.80
2019-01-21T21:30:31.071Z,29.33
2019-01-21T21:33:00.427Z,31.20
2019-01-21T21:35:29.212Z,31.47
2019-01-21T21:37:58.330Z,25.73
2019-01-21T21:40:26.976Z,23.40
2019-01-21T21:42:59.133Z,24.87
2019-01-21T21:45:27.977Z,27.83
2019-01-21T21:48:03.008Z,24.63
2019-01-21T21:50:32.786Z,28.27
2019-01-21T21:53:01.211Z,26.70
2019-01-21T21:55:29.908Z,25.70
2019-01-21T21:57:58.354Z,27.50
2019-01-21T22:00:29.054Z,29.83
2019-01-21T22:02:57.526Z,26.27
2019-01-21T22:05:26.008Z,31.60
2019-01-21T22:07:54.436Z,29.90
2019-01-21T22:10:26.043Z,41.20
2019-01-21T22:12:54.755Z,33.93
2019-01-21T22:15:25.175Z,27.93
2019-01-21T22:17:53.621Z,29.80
2019-01-21T22:20:24.002Z,24.00
2019-01-21T22:22:52.510Z,32.57
2019-01-21T22:25:21.234Z,26.17
2019-01-21T22:27:49.676Z,26.57
2019-01-21T22:30:21.369Z,30.23
2019-01-21T22:32:50.219Z,36.87
2019-01-21T22:35:18.548Z,36.60
2019-01-21T22:37:47.170Z,29.73
2019-01-21T22:40:17.957Z,26.40
2019-01-21T22:42:46.423Z,27.90
2019-01-21T22:45:16.232Z,31.20
2019-01-21T22:47:44.510Z,32.90
2019-01-21T22:50:16.046Z,31.63
2019-01-21T22:52:44.327Z,24.90
2019-01-21T22:55:15.019Z,28.67
2019-01-21T22:57:43.317Z,34.40
2019-01-21T23:00:14.923Z,25.30
2019-01-21T23:02:43.547Z,25.00
2019-01-21T23:05:11.906Z,35.10
2019-01-21T23:07:40.180Z,36.93
2019-01-21T23:10:09.560Z,28.77
2019-01-21T23:12:37.954Z,34.90
2019-01-21T23:15:07.899Z,27.73
2019-01-21T23:17:36.177Z,31.53
2019-01-21T23:20:07.985Z,19.00
2019-01-21T23:22:36.301Z,9.23
2019-01-21T23:25:05.553Z,26.23
2019-01-21T23:27:33.861Z,18.40
2019-01-21T23:30:02.186Z,28.93
2019-01-21T23:32:33.164Z,28.20
2019-01-21T23:35:02.473Z,29.20
2019-01-21T23:37:31.252Z,27.73
2019-01-21T23:39:59.672Z,31.70
2019-01-21T23:42:28.282Z,31.93
2019-01-21T23:44:56.578Z,30.17
2019-01-21T23:47:24.925Z,32.73
2019-01-21T23:49:53.300Z,35.77
2019-01-21T23:52:21.797Z,39.60
2019-01-21T23:54:50.127Z,24.20
2019-01-21T23:57:18.450Z,40.33
2019-01-21T23:59:46.840Z,34.27
